Terminal Aerodrome Forecast
Issued by NWS Duluth, MN

Home | Current Version | Previous Version | Text Only | Print | Product List | Glossary On
Versions: 1 2 3 4 5 6 7 8 9 10 11 12 13 14 15 16 17 18 19 20 21 22 23 24 25 26 27 28 29 30 31 32 33 34
000
FTUS43 KDLH 280041 AAB
TAFINL
TAF AMD
KINL 280041Z 2801/2824 30011G26KT P6SM VCTS BKN060CB
      TEMPO 2801/2802 1 1/2SM +TSRA BR BKN024CB
     FM280600 26010KT 5SM -RA BR VCSH OVC035
     FM280900 31003KT 3SM BR OVC015
     FM281400 02006KT P6SM VCSH BKN035=

USA.gov is the U.S. government's official web portal to all federal, state and local government web resources and services.